Startpagina
METAR-TAF:

METAR-TAF

Vliegvelden :

Nouméa / La Tontouta, Nieuw-Caledonië

breedte: 22-01S, lengte: 166-13E, hoogte: 16 m

Actueel weer

Dit bericht is 14 minuten geleden gemaakt, om 19:30 UTC
Wind 2 kt uit het zuiden
Temperatuur 13°C
Vochtigheid 88%
Druk 1019 hPa
Zicht 10 km of meer
Weinig wolken op 6000 ft

METAR: NWWW 231930Z AUTO 17002KT 9999 FEW060 13/11 Q1019 NOSIG

Tijdstip: 06:44 (19:44 UTC)

Verwachting

Dit bericht is 2 uur en het 44 minuten geleden gemaakt, om 17:00 UTC
Verwachting geldig van 23 om 18 UTC tot 24 om 18 UTC
Wind 5 kt uit het oosten
Zicht 10 km of meer
Weinig wolken op 4000 ft

TAF: NWWW 231700Z 2318/2418 08005KT 9999 FEW040

Waarnemingen en weersverwachtingen van meer dan 4000 vliegvelden (METAR en TAF).

De beschikbare stations zijn de gele en rode punten op de kaart.

Ga met uw muis naar het station om de naam te zien.

Klik dan om waarnemingen en weersverwachtingen te zien.

kaart wijzigen: klik op de groene knoppen met een zwart kruis om in te zoomen, op de groene knop met een streepje om uit te zoomen of op de groene pijlen voor aangrenzende kaarten.


METAR-TAF: